Marlinton, WV

7:00 PM EDT on August 30, 2015 (GMT -0400)
RAWS | | Change Station
CLOSE
Current Station
Personal Weather Station
Location: Marlinton, WV
Elevation: 3082 ft
Nearby Weather Stations

Elev 3082 ft 38.22 °N, 80.04 °W | Updated 59 minutes ago

Scattered Clouds
Scattered Clouds
70.0 °F
Feels Like 70.0 °F
N
0.0
Wind Variable Wind from North
Gusts 3.0 mph

Today
High -- | Low -- °F
--% Chance of Precip.
Yesterday
High -- | Low -- °F
Precip. -- in
6:47 AM 7:53 PM
Full, 98% visible
Pressure 30.24 in
Visibility 10.0 miles
Clouds Scattered Clouds 11000 ft
Dew Point 63.0 °F
Humidity 78%
Rainfall in
Snow Depth Not available.
UV 1 out of 12
Pollen 9.40 out of 12
Air Quality Not available.
Flu Activity Not available.
METAR KHSP 302230Z AUTO 18005KT 10SM SCT110 21/15 A3024 RMK AO2 T02100150
Pressure 30.24 in
Visibility 10.0 miles
Clouds Scattered Clouds 11000 ft
Dew Point 63.0 °F
Humidity 78%
Rainfall in
Snow Depth Not available.
UV 1 out of 12
Pollen 9.40 out of 12
Air Quality Not available.
Flu Activity Not available.
METAR KHSP 302230Z AUTO 18005KT 10SM SCT110 21/15 A3024 RMK AO2 T02100150

10-Day Weather Forecast

×

Almanac

Astronomy

Aug. 30, 2015 Rise Set
Actual Time
Civil Twilight
Nautical Twilight
Astronomical Twilight
Moon
Length of Visible Light
Length of Day
Tomorrow will be .
, % of the Moon is Illuminated

Today's Extremes

State Highs State Lows

Community

WunderPhotos

Upload Photos

1,851,087 photos uploaded!

WunderBlogs® & News

Nearby

Air Quality

  Air Quality AQ Index Pollutant
Not available.

Snow Depth

Station Depth Elevation

Earthquake Activity

City Distance Mag. Time & Date
Minimum magnitude displayed is 2.5.

Coastal Water Temperatures

Place Temperature

Stations

Nearby Weather Stations

Station Location Temp. Windchill Dew Point Humidity Wind Precip. Elev Updated Type